sensor_id;sensor_type;location;lat;lon;timestamp;temperature;humidity
4435;DHT22;46552;52.150;8.428;2022-10-17T00:01:56;15.10;99.90
4435;DHT22;46552;52.150;8.428;2022-10-17T00:04:25;15.10;99.90
4435;DHT22;46552;52.150;8.428;2022-10-17T00:06:52;15.10;99.90
4435;DHT22;46552;52.150;8.428;2022-10-17T00:09:20;15.10;99.90
4435;DHT22;46552;52.150;8.428;2022-10-17T00:11:47;15.10;99.90
4435;DHT22;46552;52.150;8.428;2022-10-17T00:14:14;15.10;99.90
4435;DHT22;46552;52.150;8.428;2022-10-17T00:16:41;15.10;99.90
4435;DHT22;46552;52.150;8.428;2022-10-17T00:19:08;15.00;99.90
4435;DHT22;46552;52.150;8.428;2022-10-17T00:21:37;15.00;99.90
4435;DHT22;46552;52.150;8.428;2022-10-17T00:24:04;15.00;99.90
4435;DHT22;46552;52.150;8.428;2022-10-17T00:26:31;15.00;99.90
4435;DHT22;46552;52.150;8.428;2022-10-17T00:28:58;15.00;99.90
4435;DHT22;46552;52.150;8.428;2022-10-17T00:31:26;15.00;99.90
4435;DHT22;46552;52.150;8.428;2022-10-17T00:33:53;14.90;99.90
4435;DHT22;46552;52.150;8.428;2022-10-17T00:36:21;14.90;99.90
4435;DHT22;46552;52.150;8.428;2022-10-17T00:38:53;14.90;99.90
4435;DHT22;46552;52.150;8.428;2022-10-17T00:41:22;14.90;99.90
4435;DHT22;46552;52.150;8.428;2022-10-17T00:43:56;14.90;99.90
4435;DHT22;46552;52.150;8.428;2022-10-17T00:46:25;14.80;99.90
4435;DHT22;46552;52.150;8.428;2022-10-17T00:48:54;14.80;99.90
4435;DHT22;46552;52.150;8.428;2022-10-17T00:51:27;14.80;99.90
4435;DHT22;46552;52.150;8.428;2022-10-17T00:53:59;14.80;99.90
4435;DHT22;46552;52.150;8.428;2022-10-17T00:56:27;14.70;99.90
4435;DHT22;46552;52.150;8.428;2022-10-17T00:58:54;14.70;99.90
4435;DHT22;46552;52.150;8.428;2022-10-17T01:01:21;14.70;99.90
4435;DHT22;46552;52.150;8.428;2022-10-17T01:03:49;14.70;99.90
4435;DHT22;46552;52.150;8.428;2022-10-17T01:06:16;14.70;99.90
4435;DHT22;46552;52.150;8.428;2022-10-17T01:08:43;14.70;99.90
4435;DHT22;46552;52.150;8.428;2022-10-17T01:11:22;14.70;99.90
4435;DHT22;46552;52.150;8.428;2022-10-17T01:13:54;14.70;99.90
4435;DHT22;46552;52.150;8.428;2022-10-17T01:16:31;14.60;99.90
4435;DHT22;46552;52.150;8.428;2022-10-17T01:21:55;14.60;99.90
4435;DHT22;46552;52.150;8.428;2022-10-17T01:24:54;14.60;99.90
4435;DHT22;46552;52.150;8.428;2022-10-17T01:27:36;14.60;99.90
4435;DHT22;46552;52.150;8.428;2022-10-17T01:30:28;14.60;99.90
4435;DHT22;46552;52.150;8.428;2022-10-17T01:33:07;14.50;99.90
4435;DHT22;46552;52.150;8.428;2022-10-17T01:35:39;14.50;99.90
4435;DHT22;46552;52.150;8.428;2022-10-17T01:38:10;14.50;99.90
4435;DHT22;46552;52.150;8.428;2022-10-17T01:40:42;14.50;99.90
4435;DHT22;46552;52.150;8.428;2022-10-17T01:43:14;14.40;99.90
4435;DHT22;46552;52.150;8.428;2022-10-17T01:45:48;14.40;99.90
4435;DHT22;46552;52.150;8.428;2022-10-17T01:48:22;14.40;99.90
4435;DHT22;46552;52.150;8.428;2022-10-17T01:50:52;14.30;99.90
4435;DHT22;46552;52.150;8.428;2022-10-17T01:53:25;14.30;99.90
4435;DHT22;46552;52.150;8.428;2022-10-17T01:55:56;14.30;99.90
4435;DHT22;46552;52.150;8.428;2022-10-17T01:58:30;14.30;99.90
4435;DHT22;46552;52.150;8.428;2022-10-17T02:01:00;14.20;99.90
4435;DHT22;46552;52.150;8.428;2022-10-17T02:03:32;14.10;99.90
4435;DHT22;46552;52.150;8.428;2022-10-17T02:06:01;14.20;99.90
4435;DHT22;46552;52.150;8.428;2022-10-17T02:08:40;14.10;99.90
4435;DHT22;46552;52.150;8.428;2022-10-17T02:11:11;14.10;99.90
4435;DHT22;46552;52.150;8.428;2022-10-17T02:16:44;14.10;99.90
4435;DHT22;46552;52.150;8.428;2022-10-17T02:19:37;14.00;99.90
4435;DHT22;46552;52.150;8.428;2022-10-17T02:22:16;14.00;99.90
4435;DHT22;46552;52.150;8.428;2022-10-17T02:24:50;14.00;99.90
4435;DHT22;46552;52.150;8.428;2022-10-17T02:27:25;14.00;99.90
4435;DHT22;46552;52.150;8.428;2022-10-17T02:30:02;14.00;99.90
4435;DHT22;46552;52.150;8.428;2022-10-17T02:32:35;14.00;99.90
4435;DHT22;46552;52.150;8.428;2022-10-17T02:35:09;14.00;99.90
4435;DHT22;46552;52.150;8.428;2022-10-17T02:37:41;14.00;99.90
4435;DHT22;46552;52.150;8.428;2022-10-17T02:40:10;14.00;99.90
4435;DHT22;46552;52.150;8.428;2022-10-17T02:42:40;14.00;99.90
4435;DHT22;46552;52.150;8.428;2022-10-17T02:45:10;14.10;99.90
4435;DHT22;46552;52.150;8.428;2022-10-17T02:47:47;14.10;99.90
4435;DHT22;46552;52.150;8.428;2022-10-17T02:50:19;14.10;99.90
4435;DHT22;46552;52.150;8.428;2022-10-17T02:52:51;14.10;99.90
4435;DHT22;46552;52.150;8.428;2022-10-17T02:55:25;14.10;99.90
4435;DHT22;46552;52.150;8.428;2022-10-17T02:57:56;14.10;99.90
4435;DHT22;46552;52.150;8.428;2022-10-17T03:00:25;14.20;99.90
4435;DHT22;46552;52.150;8.428;2022-10-17T03:02:53;14.20;99.90
4435;DHT22;46552;52.150;8.428;2022-10-17T03:05:24;14.20;99.90
4435;DHT22;46552;52.150;8.428;2022-10-17T03:07:52;14.20;99.90
4435;DHT22;46552;52.150;8.428;2022-10-17T03:10:20;14.20;99.90
4435;DHT22;46552;52.150;8.428;2022-10-17T03:12:47;14.20;99.90
4435;DHT22;46552;52.150;8.428;2022-10-17T03:15:14;14.20;99.90
4435;DHT22;46552;52.150;8.428;2022-10-17T03:17:41;14.20;99.90
4435;DHT22;46552;52.150;8.428;2022-10-17T03:20:09;14.20;99.90
4435;DHT22;46552;52.150;8.428;2022-10-17T03:22:38;14.20;99.90
4435;DHT22;46552;52.150;8.428;2022-10-17T03:25:05;14.20;99.90
4435;DHT22;46552;52.150;8.428;2022-10-17T03:27:32;14.20;99.90
4435;DHT22;46552;52.150;8.428;2022-10-17T03:29:59;14.20;99.90
4435;DHT22;46552;52.150;8.428;2022-10-17T03:32:26;14.20;99.90
4435;DHT22;46552;52.150;8.428;2022-10-17T03:34:53;14.20;99.90
4435;DHT22;46552;52.150;8.428;2022-10-17T03:37:20;14.20;99.90
4435;DHT22;46552;52.150;8.428;2022-10-17T03:39:49;14.20;99.90
4435;DHT22;46552;52.150;8.428;2022-10-17T03:42:16;14.10;99.90
4435;DHT22;46552;52.150;8.428;2022-10-17T03:44:44;14.10;99.90
4435;DHT22;46552;52.150;8.428;2022-10-17T03:47:12;14.10;99.90
4435;DHT22;46552;52.150;8.428;2022-10-17T03:49:40;14.10;99.90
4435;DHT22;46552;52.150;8.428;2022-10-17T03:52:10;14.10;99.90
4435;DHT22;46552;52.150;8.428;2022-10-17T03:54:38;14.10;99.90
4435;DHT22;46552;52.150;8.428;2022-10-17T03:57:06;14.10;99.90
4435;DHT22;46552;52.150;8.428;2022-10-17T03:59:33;14.00;99.90
4435;DHT22;46552;52.150;8.428;2022-10-17T04:02:00;14.00;99.90
4435;DHT22;46552;52.150;8.428;2022-10-17T04:04:27;14.00;99.90
4435;DHT22;46552;52.150;8.428;2022-10-17T04:06:54;14.00;99.90
4435;DHT22;46552;52.150;8.428;2022-10-17T04:09:22;13.90;99.90
4435;DHT22;46552;52.150;8.428;2022-10-17T04:11:49;14.00;99.90
4435;DHT22;46552;52.150;8.428;2022-10-17T04:14:18;13.90;99.90
4435;DHT22;46552;52.150;8.428;2022-10-17T04:16:45;13.90;99.90
4435;DHT22;46552;52.150;8.428;2022-10-17T04:19:13;14.00;99.90
4435;DHT22;46552;52.150;8.428;2022-10-17T04:21:40;14.00;99.90
4435;DHT22;46552;52.150;8.428;2022-10-17T04:24:09;14.00;99.90
4435;DHT22;46552;52.150;8.428;2022-10-17T04:26:36;14.00;99.90
4435;DHT22;46552;52.150;8.428;2022-10-17T04:29:04;14.00;99.90
4435;DHT22;46552;52.150;8.428;2022-10-17T04:31:32;14.00;99.90
4435;DHT22;46552;52.150;8.428;2022-10-17T04:34:00;14.00;99.90
4435;DHT22;46552;52.150;8.428;2022-10-17T04:36:27;14.00;99.90
4435;DHT22;46552;52.150;8.428;2022-10-17T04:38:54;14.00;99.90
4435;DHT22;46552;52.150;8.428;2022-10-17T04:41:22;14.00;99.90
4435;DHT22;46552;52.150;8.428;2022-10-17T04:43:50;14.00;99.90
4435;DHT22;46552;52.150;8.428;2022-10-17T04:46:17;14.00;99.90
4435;DHT22;46552;52.150;8.428;2022-10-17T04:48:46;14.00;99.90
4435;DHT22;46552;52.150;8.428;2022-10-17T04:51:16;14.00;99.90
4435;DHT22;46552;52.150;8.428;2022-10-17T04:53:44;14.00;99.90
4435;DHT22;46552;52.150;8.428;2022-10-17T04:56:13;14.00;99.90
4435;DHT22;46552;52.150;8.428;2022-10-17T04:58:41;14.00;99.90
4435;DHT22;46552;52.150;8.428;2022-10-17T05:01:11;14.00;99.90
4435;DHT22;46552;52.150;8.428;2022-10-17T05:03:39;14.00;99.90
4435;DHT22;46552;52.150;8.428;2022-10-17T05:06:09;14.00;99.90
4435;DHT22;46552;52.150;8.428;2022-10-17T05:08:37;14.00;99.90
4435;DHT22;46552;52.150;8.428;2022-10-17T05:11:05;13.90;99.90
4435;DHT22;46552;52.150;8.428;2022-10-17T05:13:39;13.90;99.90
4435;DHT22;46552;52.150;8.428;2022-10-17T05:16:06;13.90;99.90
4435;DHT22;46552;52.150;8.428;2022-10-17T05:18:33;13.90;99.90
4435;DHT22;46552;52.150;8.428;2022-10-17T05:21:02;13.90;99.90
4435;DHT22;46552;52.150;8.428;2022-10-17T05:23:31;13.90;99.90
4435;DHT22;46552;52.150;8.428;2022-10-17T05:25:58;13.90;99.90
4435;DHT22;46552;52.150;8.428;2022-10-17T05:28:26;13.90;99.90
4435;DHT22;46552;52.150;8.428;2022-10-17T05:30:53;13.90;99.90
4435;DHT22;46552;52.150;8.428;2022-10-17T05:33:22;13.90;99.90
4435;DHT22;46552;52.150;8.428;2022-10-17T05:35:49;13.90;99.90
4435;DHT22;46552;52.150;8.428;2022-10-17T05:38:16;13.90;99.90
4435;DHT22;46552;52.150;8.428;2022-10-17T05:40:44;13.90;99.90
4435;DHT22;46552;52.150;8.428;2022-10-17T05:43:11;13.90;99.90
4435;DHT22;46552;52.150;8.428;2022-10-17T05:45:39;13.90;99.90
4435;DHT22;46552;52.150;8.428;2022-10-17T05:48:06;13.90;99.90
4435;DHT22;46552;52.150;8.428;2022-10-17T05:50:34;13.90;99.90
4435;DHT22;46552;52.150;8.428;2022-10-17T05:53:01;13.90;99.90
4435;DHT22;46552;52.150;8.428;2022-10-17T05:55:29;13.90;99.90
4435;DHT22;46552;52.150;8.428;2022-10-17T05:57:58;13.90;99.90
4435;DHT22;46552;52.150;8.428;2022-10-17T06:00:25;13.90;99.90
4435;DHT22;46552;52.150;8.428;2022-10-17T06:02:54;13.90;99.90
4435;DHT22;46552;52.150;8.428;2022-10-17T06:05:21;13.80;99.90
4435;DHT22;46552;52.150;8.428;2022-10-17T06:07:49;13.80;99.90
4435;DHT22;46552;52.150;8.428;2022-10-17T06:10:17;13.80;99.90
4435;DHT22;46552;52.150;8.428;2022-10-17T06:12:45;13.80;99.90
4435;DHT22;46552;52.150;8.428;2022-10-17T06:15:13;13.80;99.90
4435;DHT22;46552;52.150;8.428;2022-10-17T06:17:40;13.80;99.90
4435;DHT22;46552;52.150;8.428;2022-10-17T06:20:08;13.90;99.90
4435;DHT22;46552;52.150;8.428;2022-10-17T06:22:36;13.90;99.90
4435;DHT22;46552;52.150;8.428;2022-10-17T06:25:04;13.90;99.90
4435;DHT22;46552;52.150;8.428;2022-10-17T06:27:31;13.90;99.90
4435;DHT22;46552;52.150;8.428;2022-10-17T06:29:58;14.00;99.90
4435;DHT22;46552;52.150;8.428;2022-10-17T06:32:28;14.00;99.90
4435;DHT22;46552;52.150;8.428;2022-10-17T06:34:55;14.10;99.90
4435;DHT22;46552;52.150;8.428;2022-10-17T06:37:22;14.10;99.90
4435;DHT22;46552;52.150;8.428;2022-10-17T06:39:49;14.20;99.90
4435;DHT22;46552;52.150;8.428;2022-10-17T06:42:17;14.20;99.90
4435;DHT22;46552;52.150;8.428;2022-10-17T06:44:44;14.30;99.90
4435;DHT22;46552;52.150;8.428;2022-10-17T06:47:11;14.30;99.90
4435;DHT22;46552;52.150;8.428;2022-10-17T06:49:41;14.30;99.90
4435;DHT22;46552;52.150;8.428;2022-10-17T06:52:09;14.40;99.90
4435;DHT22;46552;52.150;8.428;2022-10-17T06:54:36;14.50;99.90
4435;DHT22;46552;52.150;8.428;2022-10-17T06:57:04;14.60;99.90
4435;DHT22;46552;52.150;8.428;2022-10-17T06:59:32;14.60;99.90
4435;DHT22;46552;52.150;8.428;2022-10-17T07:02:00;14.70;99.90
4435;DHT22;46552;52.150;8.428;2022-10-17T07:04:27;14.80;99.90
4435;DHT22;46552;52.150;8.428;2022-10-17T07:06:56;14.90;99.90
4435;DHT22;46552;52.150;8.428;2022-10-17T07:09:23;15.10;99.90
4435;DHT22;46552;52.150;8.428;2022-10-17T07:11:51;15.10;99.90
4435;DHT22;46552;52.150;8.428;2022-10-17T07:14:18;15.10;99.90
4435;DHT22;46552;52.150;8.428;2022-10-17T07:16:46;15.20;99.90
4435;DHT22;46552;52.150;8.428;2022-10-17T07:19:14;15.30;99.90
4435;DHT22;46552;52.150;8.428;2022-10-17T07:21:41;15.30;99.90
4435;DHT22;46552;52.150;8.428;2022-10-17T07:24:11;15.40;99.90
4435;DHT22;46552;52.150;8.428;2022-10-17T07:26:38;15.60;99.90
4435;DHT22;46552;52.150;8.428;2022-10-17T07:29:05;15.70;99.90
4435;DHT22;46552;52.150;8.428;2022-10-17T07:31:33;15.80;99.90
4435;DHT22;46552;52.150;8.428;2022-10-17T07:34:01;16.00;99.90
4435;DHT22;46552;52.150;8.428;2022-10-17T07:36:30;16.20;99.90
4435;DHT22;46552;52.150;8.428;2022-10-17T07:38:57;16.50;99.90
4435;DHT22;46552;52.150;8.428;2022-10-17T07:41:26;16.80;99.90
4435;DHT22;46552;52.150;8.428;2022-10-17T07:43:53;17.20;99.90
4435;DHT22;46552;52.150;8.428;2022-10-17T07:46:22;17.60;99.90
4435;DHT22;46552;52.150;8.428;2022-10-17T07:48:49;17.90;99.90
4435;DHT22;46552;52.150;8.428;2022-10-17T07:51:16;18.20;99.90
4435;DHT22;46552;52.150;8.428;2022-10-17T07:53:44;18.40;99.90
4435;DHT22;46552;52.150;8.428;2022-10-17T07:56:11;18.60;99.90
4435;DHT22;46552;52.150;8.428;2022-10-17T07:58:40;18.80;99.90
4435;DHT22;46552;52.150;8.428;2022-10-17T08:01:08;18.90;99.90
4435;DHT22;46552;52.150;8.428;2022-10-17T08:03:39;19.00;99.90
4435;DHT22;46552;52.150;8.428;2022-10-17T08:06:07;19.10;99.90
4435;DHT22;46552;52.150;8.428;2022-10-17T08:08:34;19.30;99.90
4435;DHT22;46552;52.150;8.428;2022-10-17T08:11:03;19.40;99.90
4435;DHT22;46552;52.150;8.428;2022-10-17T08:13:31;19.50;99.90
4435;DHT22;46552;52.150;8.428;2022-10-17T08:16:01;19.50;99.90
4435;DHT22;46552;52.150;8.428;2022-10-17T08:18:29;19.60;99.90
4435;DHT22;46552;52.150;8.428;2022-10-17T08:20:58;19.60;99.90
4435;DHT22;46552;52.150;8.428;2022-10-17T08:23:26;19.70;99.90
4435;DHT22;46552;52.150;8.428;2022-10-17T08:25:53;19.70;99.90
4435;DHT22;46552;52.150;8.428;2022-10-17T08:28:20;19.80;99.90
4435;DHT22;46552;52.150;8.428;2022-10-17T08:30:47;19.80;99.90
4435;DHT22;46552;52.150;8.428;2022-10-17T08:33:17;19.80;99.90
4435;DHT22;46552;52.150;8.428;2022-10-17T08:35:44;19.90;99.90
4435;DHT22;46552;52.150;8.428;2022-10-17T08:38:13;20.00;99.90
4435;DHT22;46552;52.150;8.428;2022-10-17T08:40:40;20.20;99.90
4435;DHT22;46552;52.150;8.428;2022-10-17T08:43:30;20.50;99.90
4435;DHT22;46552;52.150;8.428;2022-10-17T08:46:04;21.00;99.90
4435;DHT22;46552;52.150;8.428;2022-10-17T08:48:38;21.70;99.90
4435;DHT22;46552;52.150;8.428;2022-10-17T08:51:12;22.80;99.90
4435;DHT22;46552;52.150;8.428;2022-10-17T08:53:44;23.50;99.90
4435;DHT22;46552;52.150;8.428;2022-10-17T08:56:18;23.80;99.90
4435;DHT22;46552;52.150;8.428;2022-10-17T08:58:46;24.10;99.90
4435;DHT22;46552;52.150;8.428;2022-10-17T09:01:27;24.30;99.90
4435;DHT22;46552;52.150;8.428;2022-10-17T09:04:18;24.20;99.90
4435;DHT22;46552;52.150;8.428;2022-10-17T09:06:53;23.90;99.90
4435;DHT22;46552;52.150;8.428;2022-10-17T09:09:30;23.60;99.90
4435;DHT22;46552;52.150;8.428;2022-10-17T09:12:13;23.30;99.90
4435;DHT22;46552;52.150;8.428;2022-10-17T09:14:54;22.90;99.90
4435;DHT22;46552;52.150;8.428;2022-10-17T09:17:33;22.70;99.90
4435;DHT22;46552;52.150;8.428;2022-10-17T09:20:11;23.40;99.90
4435;DHT22;46552;52.150;8.428;2022-10-17T09:22:45;23.50;99.90
4435;DHT22;46552;52.150;8.428;2022-10-17T09:25:16;23.70;99.90
4435;DHT22;46552;52.150;8.428;2022-10-17T09:27:46;23.90;99.90
4435;DHT22;46552;52.150;8.428;2022-10-17T09:30:26;24.00;99.90
4435;DHT22;46552;52.150;8.428;2022-10-17T09:32:54;23.90;99.90
4435;DHT22;46552;52.150;8.428;2022-10-17T09:35:23;23.70;99.90
4435;DHT22;46552;52.150;8.428;2022-10-17T09:37:51;23.80;99.90
4435;DHT22;46552;52.150;8.428;2022-10-17T09:40:32;23.90;99.90
4435;DHT22;46552;52.150;8.428;2022-10-17T09:43:02;24.30;99.90
4435;DHT22;46552;52.150;8.428;2022-10-17T09:45:32;24.70;99.90
4435;DHT22;46552;52.150;8.428;2022-10-17T09:48:09;25.20;99.90
4435;DHT22;46552;52.150;8.428;2022-10-17T09:50:39;26.10;99.60
4435;DHT22;46552;52.150;8.428;2022-10-17T09:53:12;27.00;98.50
4435;DHT22;46552;52.150;8.428;2022-10-17T09:55:42;27.40;97.20
4435;DHT22;46552;52.150;8.428;2022-10-17T09:58:12;28.00;96.30
4435;DHT22;46552;52.150;8.428;2022-10-17T10:00:41;28.10;95.80
4435;DHT22;46552;52.150;8.428;2022-10-17T10:03:13;28.60;95.20
4435;DHT22;46552;52.150;8.428;2022-10-17T10:05:57;29.20;94.60
4435;DHT22;46552;52.150;8.428;2022-10-17T10:08:27;29.50;93.60
4435;DHT22;46552;52.150;8.428;2022-10-17T10:10:57;29.60;93.00
4435;DHT22;46552;52.150;8.428;2022-10-17T10:13:25;29.20;91.90
4435;DHT22;46552;52.150;8.428;2022-10-17T10:15:53;29.40;92.60
4435;DHT22;46552;52.150;8.428;2022-10-17T10:18:38;29.80;92.00
4435;DHT22;46552;52.150;8.428;2022-10-17T10:21:10;30.00;90.20
4435;DHT22;46552;52.150;8.428;2022-10-17T10:23:38;30.10;90.70
4435;DHT22;46552;52.150;8.428;2022-10-17T10:26:20;30.20;90.40
4435;DHT22;46552;52.150;8.428;2022-10-17T10:28:56;30.50;90.00
4435;DHT22;46552;52.150;8.428;2022-10-17T10:31:30;30.50;89.40
4435;DHT22;46552;52.150;8.428;2022-10-17T10:34:00;30.40;89.70
4435;DHT22;46552;52.150;8.428;2022-10-17T10:36:48;30.80;88.70
4435;DHT22;46552;52.150;8.428;2022-10-17T10:39:30;31.50;86.10
4435;DHT22;46552;52.150;8.428;2022-10-17T10:41:58;31.90;85.70
4435;DHT22;46552;52.150;8.428;2022-10-17T10:44:27;32.00;86.10
4435;DHT22;46552;52.150;8.428;2022-10-17T10:47:22;31.80;84.60
4435;DHT22;46552;52.150;8.428;2022-10-17T10:50:05;31.00;85.60
4435;DHT22;46552;52.150;8.428;2022-10-17T10:52:40;31.20;86.40
4435;DHT22;46552;52.150;8.428;2022-10-17T10:55:22;31.10;85.20
4435;DHT22;46552;52.150;8.428;2022-10-17T10:57:52;30.80;86.10
4435;DHT22;46552;52.150;8.428;2022-10-17T11:00:24;31.10;85.90
4435;DHT22;46552;52.150;8.428;2022-10-17T11:02:58;31.10;85.50
4435;DHT22;46552;52.150;8.428;2022-10-17T11:05:38;30.60;86.30
4435;DHT22;46552;52.150;8.428;2022-10-17T11:08:16;29.70;87.60
4435;DHT22;46552;52.150;8.428;2022-10-17T11:10:55;28.80;90.10
4435;DHT22;46552;52.150;8.428;2022-10-17T11:13:25;28.10;91.00
4435;DHT22;46552;52.150;8.428;2022-10-17T11:15:58;27.40;92.00
4435;DHT22;46552;52.150;8.428;2022-10-17T11:18:34;26.90;92.80
4435;DHT22;46552;52.150;8.428;2022-10-17T11:21:09;26.30;93.50
4435;DHT22;46552;52.150;8.428;2022-10-17T11:23:43;25.90;94.30
4435;DHT22;46552;52.150;8.428;2022-10-17T11:26:16;25.60;95.10
4435;DHT22;46552;52.150;8.428;2022-10-17T11:28:50;25.30;95.60
4435;DHT22;46552;52.150;8.428;2022-10-17T11:31:20;25.10;96.10
4435;DHT22;46552;52.150;8.428;2022-10-17T11:33:51;24.80;96.80
4435;DHT22;46552;52.150;8.428;2022-10-17T11:36:25;24.60;97.30
4435;DHT22;46552;52.150;8.428;2022-10-17T11:39:00;24.50;97.70
4435;DHT22;46552;52.150;8.428;2022-10-17T11:41:33;24.40;98.00
4435;DHT22;46552;52.150;8.428;2022-10-17T11:44:17;24.20;98.10
4435;DHT22;46552;52.150;8.428;2022-10-17T11:46:50;24.20;98.30
4435;DHT22;46552;52.150;8.428;2022-10-17T11:49:21;24.10;98.50
4435;DHT22;46552;52.150;8.428;2022-10-17T11:51:53;24.00;98.50
4435;DHT22;46552;52.150;8.428;2022-10-17T11:54:27;23.90;98.60
4435;DHT22;46552;52.150;8.428;2022-10-17T11:57:05;23.80;98.70
4435;DHT22;46552;52.150;8.428;2022-10-17T11:59:57;23.70;98.70
4435;DHT22;46552;52.150;8.428;2022-10-17T12:02:32;23.50;98.90
4435;DHT22;46552;52.150;8.428;2022-10-17T12:05:10;23.40;99.20
4435;DHT22;46552;52.150;8.428;2022-10-17T12:07:42;23.30;99.40
4435;DHT22;46552;52.150;8.428;2022-10-17T12:10:27;23.20;99.60
4435;DHT22;46552;52.150;8.428;2022-10-17T12:12:56;23.10;99.80
4435;DHT22;46552;52.150;8.428;2022-10-17T12:15:28;23.00;99.90
4435;DHT22;46552;52.150;8.428;2022-10-17T12:17:56;22.90;99.90
4435;DHT22;46552;52.150;8.428;2022-10-17T12:20:30;22.80;99.90
4435;DHT22;46552;52.150;8.428;2022-10-17T12:23:15;22.90;99.90
4435;DHT22;46552;52.150;8.428;2022-10-17T12:25:50;22.90;99.90
4435;DHT22;46552;52.150;8.428;2022-10-17T12:28:26;22.90;99.90
4435;DHT22;46552;52.150;8.428;2022-10-17T12:30:57;22.90;99.90
4435;DHT22;46552;52.150;8.428;2022-10-17T12:33:30;22.90;99.90
4435;DHT22;46552;52.150;8.428;2022-10-17T12:42:32;22.80;99.90
4435;DHT22;46552;52.150;8.428;2022-10-17T12:48:11;22.50;99.90
4435;DHT22;46552;52.150;8.428;2022-10-17T12:51:01;22.40;99.90
4435;DHT22;46552;52.150;8.428;2022-10-17T12:53:34;22.40;99.90
4435;DHT22;46552;52.150;8.428;2022-10-17T12:56:05;22.40;99.90
4435;DHT22;46552;52.150;8.428;2022-10-17T12:58:34;22.40;99.90
4435;DHT22;46552;52.150;8.428;2022-10-17T13:01:01;22.40;99.90
4435;DHT22;46552;52.150;8.428;2022-10-17T13:03:32;22.40;99.90
4435;DHT22;46552;52.150;8.428;2022-10-17T13:06:02;22.30;99.90
4435;DHT22;46552;52.150;8.428;2022-10-17T13:08:32;22.30;99.90
4435;DHT22;46552;52.150;8.428;2022-10-17T13:11:02;22.30;99.90
4435;DHT22;46552;52.150;8.428;2022-10-17T13:13:37;22.40;99.90
4435;DHT22;46552;52.150;8.428;2022-10-17T13:16:07;22.40;99.90
4435;DHT22;46552;52.150;8.428;2022-10-17T13:18:34;22.50;99.90
4435;DHT22;46552;52.150;8.428;2022-10-17T13:21:05;22.50;99.90
4435;DHT22;46552;52.150;8.428;2022-10-17T13:23:36;22.60;99.90
4435;DHT22;46552;52.150;8.428;2022-10-17T13:26:12;22.60;99.90
4435;DHT22;46552;52.150;8.428;2022-10-17T13:28:41;22.60;99.90
4435;DHT22;46552;52.150;8.428;2022-10-17T13:31:27;22.60;99.90
4435;DHT22;46552;52.150;8.428;2022-10-17T13:33:57;22.70;99.90
4435;DHT22;46552;52.150;8.428;2022-10-17T13:36:25;22.60;99.90
4435;DHT22;46552;52.150;8.428;2022-10-17T13:38:53;22.60;99.90
4435;DHT22;46552;52.150;8.428;2022-10-17T13:41:23;22.60;99.90
4435;DHT22;46552;52.150;8.428;2022-10-17T13:43:52;22.60;99.90
4435;DHT22;46552;52.150;8.428;2022-10-17T13:46:26;22.60;99.90
4435;DHT22;46552;52.150;8.428;2022-10-17T13:48:55;22.50;99.90
4435;DHT22;46552;52.150;8.428;2022-10-17T13:51:23;22.50;99.90
4435;DHT22;46552;52.150;8.428;2022-10-17T13:53:51;22.50;99.90
4435;DHT22;46552;52.150;8.428;2022-10-17T13:56:19;22.40;99.90
4435;DHT22;46552;52.150;8.428;2022-10-17T13:58:48;22.50;99.90
4435;DHT22;46552;52.150;8.428;2022-10-17T14:01:17;22.40;99.90
4435;DHT22;46552;52.150;8.428;2022-10-17T14:03:46;22.40;99.90
4435;DHT22;46552;52.150;8.428;2022-10-17T14:06:16;22.40;99.90
4435;DHT22;46552;52.150;8.428;2022-10-17T14:09:02;22.30;99.90
4435;DHT22;46552;52.150;8.428;2022-10-17T14:11:33;22.20;99.90
4435;DHT22;46552;52.150;8.428;2022-10-17T14:14:03;22.10;99.90
4435;DHT22;46552;52.150;8.428;2022-10-17T14:16:38;22.00;99.90
4435;DHT22;46552;52.150;8.428;2022-10-17T14:19:15;21.90;99.90
4435;DHT22;46552;52.150;8.428;2022-10-17T14:21:48;21.90;99.90
4435;DHT22;46552;52.150;8.428;2022-10-17T14:24:27;21.90;99.90
4435;DHT22;46552;52.150;8.428;2022-10-17T14:26:56;21.80;99.90
4435;DHT22;46552;52.150;8.428;2022-10-17T14:29:26;21.80;99.90
4435;DHT22;46552;52.150;8.428;2022-10-17T14:32:03;21.70;99.90
4435;DHT22;46552;52.150;8.428;2022-10-17T14:34:34;21.70;99.90
4435;DHT22;46552;52.150;8.428;2022-10-17T14:37:08;21.60;99.90
4435;DHT22;46552;52.150;8.428;2022-10-17T14:39:37;21.60;99.90
4435;DHT22;46552;52.150;8.428;2022-10-17T14:42:04;21.60;99.90
4435;DHT22;46552;52.150;8.428;2022-10-17T14:44:33;21.60;99.90
4435;DHT22;46552;52.150;8.428;2022-10-17T14:47:04;21.50;99.90
4435;DHT22;46552;52.150;8.428;2022-10-17T14:49:35;21.50;99.90
4435;DHT22;46552;52.150;8.428;2022-10-17T14:52:10;21.50;99.90
4435;DHT22;46552;52.150;8.428;2022-10-17T14:54:38;21.50;99.90
4435;DHT22;46552;52.150;8.428;2022-10-17T14:57:14;21.50;99.90
4435;DHT22;46552;52.150;8.428;2022-10-17T14:59:43;21.40;99.90
4435;DHT22;46552;52.150;8.428;2022-10-17T15:02:12;21.40;99.90
4435;DHT22;46552;52.150;8.428;2022-10-17T15:04:40;21.40;99.90
4435;DHT22;46552;52.150;8.428;2022-10-17T15:07:11;21.40;99.90
4435;DHT22;46552;52.150;8.428;2022-10-17T15:09:38;21.40;99.90
4435;DHT22;46552;52.150;8.428;2022-10-17T15:12:09;21.40;99.90
4435;DHT22;46552;52.150;8.428;2022-10-17T15:14:38;21.30;99.90
4435;DHT22;46552;52.150;8.428;2022-10-17T15:17:14;21.40;99.90
4435;DHT22;46552;52.150;8.428;2022-10-17T15:19:43;21.30;99.90
4435;DHT22;46552;52.150;8.428;2022-10-17T15:22:11;21.30;99.90
4435;DHT22;46552;52.150;8.428;2022-10-17T15:24:39;21.30;99.90
4435;DHT22;46552;52.150;8.428;2022-10-17T15:27:13;21.30;99.90
4435;DHT22;46552;52.150;8.428;2022-10-17T15:29:41;21.30;99.90
4435;DHT22;46552;52.150;8.428;2022-10-17T15:32:08;21.30;99.90
4435;DHT22;46552;52.150;8.428;2022-10-17T15:34:37;21.20;99.90
4435;DHT22;46552;52.150;8.428;2022-10-17T15:37:05;21.20;99.90
4435;DHT22;46552;52.150;8.428;2022-10-17T15:39:33;21.10;99.90
4435;DHT22;46552;52.150;8.428;2022-10-17T15:42:00;21.10;99.90
4435;DHT22;46552;52.150;8.428;2022-10-17T15:44:27;21.10;99.90
4435;DHT22;46552;52.150;8.428;2022-10-17T15:46:56;21.00;99.90
4435;DHT22;46552;52.150;8.428;2022-10-17T15:49:23;21.00;99.90
4435;DHT22;46552;52.150;8.428;2022-10-17T15:51:51;20.90;99.90
4435;DHT22;46552;52.150;8.428;2022-10-17T15:54:18;20.90;99.90
4435;DHT22;46552;52.150;8.428;2022-10-17T15:56:51;20.90;99.90
4435;DHT22;46552;52.150;8.428;2022-10-17T15:59:21;20.90;99.90
4435;DHT22;46552;52.150;8.428;2022-10-17T16:01:51;20.80;99.90
4435;DHT22;46552;52.150;8.428;2022-10-17T16:04:18;20.70;99.90
4435;DHT22;46552;52.150;8.428;2022-10-17T16:06:46;20.70;99.90
4435;DHT22;46552;52.150;8.428;2022-10-17T16:09:15;20.70;99.90
4435;DHT22;46552;52.150;8.428;2022-10-17T16:11:43;20.70;99.90
4435;DHT22;46552;52.150;8.428;2022-10-17T16:14:15;20.70;99.90
4435;DHT22;46552;52.150;8.428;2022-10-17T16:16:43;20.60;99.90
4435;DHT22;46552;52.150;8.428;2022-10-17T16:19:10;20.50;99.90
4435;DHT22;46552;52.150;8.428;2022-10-17T16:21:38;20.50;99.90
4435;DHT22;46552;52.150;8.428;2022-10-17T16:24:08;20.50;99.90